createdAt,value
2023-05-10T00:01:26.101Z,25.97
2023-05-10T00:04:02.988Z,26.00
2023-05-10T00:05:10.608Z,25.97
2023-05-10T00:06:10.582Z,26.02
2023-05-10T00:07:02.813Z,25.99
2023-05-10T00:08:01.566Z,26.00
2023-05-10T00:10:22.309Z,25.99
2023-05-10T00:11:24.940Z,26.00
2023-05-10T00:13:39.743Z,25.96
2023-05-10T00:17:17.976Z,25.95
2023-05-10T00:21:55.638Z,25.93
2023-05-10T00:24:30.805Z,25.93
2023-05-10T00:26:59.662Z,25.93
2023-05-10T00:27:56.775Z,25.93
2023-05-10T00:30:15.533Z,25.92
2023-05-10T00:31:17.295Z,25.93
2023-05-10T00:33:30.823Z,25.89
2023-05-10T00:35:50.786Z,25.88
2023-05-10T00:41:14.027Z,25.89
2023-05-10T00:43:34.048Z,25.89
2023-05-10T00:44:32.125Z,25.92
2023-05-10T00:47:31.828Z,25.89
2023-05-10T00:48:26.161Z,25.86
2023-05-10T00:52:26.364Z,25.88
2023-05-10T00:53:23.633Z,25.88
2023-05-10T00:54:23.203Z,25.88
2023-05-10T00:59:28.375Z,25.84
2023-05-10T01:03:05.033Z,25.84
2023-05-10T01:03:58.177Z,25.86
2023-05-10T01:07:38.992Z,25.82
2023-05-10T01:09:58.586Z,25.84
2023-05-10T01:10:56.067Z,25.82
2023-05-10T01:12:03.198Z,25.86
2023-05-10T01:12:59.476Z,25.85
2023-05-10T01:13:55.636Z,25.85
2023-05-10T01:16:40.951Z,25.82
2023-05-10T01:20:18.761Z,25.82
2023-05-10T01:22:40.898Z,25.82
2023-05-10T01:23:40.798Z,25.85
2023-05-10T01:24:38.256Z,25.85
2023-05-10T01:25:38.382Z,25.85
2023-05-10T01:26:37.787Z,25.86
2023-05-10T01:30:13.646Z,25.85
2023-05-10T01:33:04.756Z,25.86
2023-05-10T01:37:26.418Z,25.82
2023-05-10T01:38:22.398Z,25.79
2023-05-10T01:41:13.507Z,25.84
2023-05-10T01:42:11.170Z,25.86
2023-05-10T01:47:06.732Z,25.79
2023-05-10T01:48:09.496Z,25.81
2023-05-10T01:50:29.551Z,25.79
2023-05-10T01:51:27.591Z,25.81
2023-05-10T01:53:47.592Z,25.78
2023-05-10T01:56:06.590Z,25.75
2023-05-10T01:58:23.609Z,25.76
2023-05-10T01:59:23.053Z,25.79
2023-05-10T02:00:28.625Z,25.81
2023-05-10T02:01:26.787Z,25.81
2023-05-10T02:03:44.505Z,25.79
2023-05-10T02:04:40.336Z,25.81
2023-05-10T02:05:41.483Z,25.84
2023-05-10T02:06:43.537Z,25.82
2023-05-10T02:07:43.676Z,25.84
2023-05-10T02:08:43.367Z,25.84
2023-05-10T02:09:42.041Z,25.81
2023-05-10T02:10:42.531Z,25.85
2023-05-10T02:15:14.899Z,25.82
2023-05-10T02:16:13.408Z,25.79
2023-05-10T02:19:52.291Z,25.78
2023-05-10T02:22:20.011Z,25.78
2023-05-10T02:24:33.675Z,25.76
2023-05-10T02:25:34.361Z,25.78
2023-05-10T02:26:35.238Z,25.76
2023-05-10T02:27:31.564Z,25.76
2023-05-10T02:28:32.736Z,25.78
2023-05-10T02:31:40.483Z,25.79
2023-05-10T02:34:16.488Z,25.76
2023-05-10T02:35:15.560Z,25.78
2023-05-10T02:36:15.809Z,25.78
2023-05-10T02:37:14.024Z,25.75
2023-05-10T02:39:38.715Z,25.74
2023-05-10T02:40:35.652Z,25.72
2023-05-10T02:42:12.823Z,25.74
2023-05-10T02:43:12.696Z,25.71
2023-05-10T02:45:32.430Z,25.72
2023-05-10T02:46:33.513Z,25.75
2023-05-10T02:47:32.540Z,25.72
2023-05-10T02:49:53.188Z,25.71
2023-05-10T02:50:53.206Z,25.72
2023-05-10T02:51:50.373Z,25.71
2023-05-10T02:52:53.263Z,25.71
2023-05-10T02:57:49.295Z,25.69
2023-05-10T02:58:45.017Z,25.72
2023-05-10T03:02:23.838Z,25.66
2023-05-10T03:06:15.648Z,25.69
2023-05-10T03:07:15.825Z,25.66
2023-05-10T03:08:12.136Z,25.68
2023-05-10T03:10:29.059Z,25.64
2023-05-10T03:11:31.826Z,25.69
2023-05-10T03:12:29.775Z,25.68
2023-05-10T03:13:31.131Z,25.66
2023-05-10T03:15:53.086Z,25.66
2023-05-10T03:16:50.339Z,25.66
2023-05-10T03:19:41.126Z,25.65
2023-05-10T03:20:36.481Z,25.66
2023-05-10T03:21:36.447Z,25.66
2023-05-10T03:22:37.449Z,25.66
2023-05-10T03:23:36.536Z,25.69
2023-05-10T03:25:58.050Z,25.65
2023-05-10T03:28:14.971Z,25.62
2023-05-10T03:29:13.985Z,25.65
2023-05-10T03:31:34.086Z,25.65
2023-05-10T03:39:48.004Z,25.60
2023-05-10T03:40:49.478Z,25.60
2023-05-10T03:43:11.994Z,25.57
2023-05-10T03:44:10.485Z,25.58
2023-05-10T03:45:11.528Z,25.58
2023-05-10T03:46:08.427Z,25.57
2023-05-10T03:47:09.436Z,25.60
2023-05-10T03:48:07.330Z,25.62
2023-05-10T03:49:05.780Z,25.62
2023-05-10T03:51:31.136Z,25.60
2023-05-10T03:57:41.033Z,25.58
2023-05-10T03:58:41.443Z,25.57
2023-05-10T03:59:41.441Z,25.60
2023-05-10T04:02:01.048Z,25.60
2023-05-10T04:04:32.555Z,25.55
2023-05-10T04:05:39.536Z,25.51
2023-05-10T04:09:21.778Z,25.54
2023-05-10T04:15:18.523Z,25.47
2023-05-10T04:16:18.232Z,25.47
2023-05-10T04:18:53.555Z,25.48
2023-05-10T04:19:51.253Z,25.51
2023-05-10T04:20:51.007Z,25.49
2023-05-10T04:23:58.037Z,25.49
2023-05-10T04:24:56.001Z,25.48
2023-05-10T04:27:53.106Z,25.47
2023-05-10T04:30:13.546Z,25.48
2023-05-10T04:33:49.263Z,25.42
2023-05-10T04:34:49.300Z,25.47
2023-05-10T04:38:51.444Z,25.45
2023-05-10T04:39:53.169Z,25.45
2023-05-10T04:44:08.456Z,25.44
2023-05-10T04:46:35.321Z,25.40
2023-05-10T04:47:31.654Z,25.41
2023-05-10T04:49:56.197Z,25.40
2023-05-10T04:54:31.878Z,25.36
2023-05-10T04:56:52.643Z,25.34
2023-05-10T04:57:52.794Z,25.34
2023-05-10T04:58:52.025Z,25.40
2023-05-10T05:01:27.024Z,25.42
2023-05-10T05:03:46.181Z,25.45
2023-05-10T05:04:45.820Z,25.49
2023-05-10T05:05:45.765Z,25.54
2023-05-10T05:06:45.201Z,25.57
2023-05-10T05:07:45.062Z,25.60
2023-05-10T05:08:45.104Z,25.62
2023-05-10T05:09:45.096Z,25.65
2023-05-10T05:10:45.069Z,25.71
2023-05-10T05:11:45.024Z,25.75
2023-05-10T05:12:45.153Z,25.74
2023-05-10T05:13:45.171Z,25.75
2023-05-10T05:14:45.033Z,25.78
2023-05-10T05:15:45.117Z,25.84
2023-05-10T05:16:45.210Z,25.81
2023-05-10T05:17:45.128Z,25.85
2023-05-10T05:18:44.955Z,25.85
2023-05-10T05:19:45.139Z,25.86
2023-05-10T05:20:45.133Z,25.89
2023-05-10T05:21:44.976Z,25.91
2023-05-10T05:24:04.642Z,25.89
2023-05-10T05:26:24.433Z,25.93
2023-05-10T05:27:24.003Z,25.95
2023-05-10T05:28:23.681Z,25.97
2023-05-10T05:29:24.014Z,25.97
2023-05-10T05:30:23.618Z,25.97
2023-05-10T05:31:27.058Z,26.03
2023-05-10T05:32:28.205Z,26.03
2023-05-10T05:33:25.154Z,26.05
2023-05-10T05:34:24.500Z,26.05
2023-05-10T05:35:23.735Z,26.06
2023-05-10T05:40:05.512Z,26.07
2023-05-10T05:42:26.531Z,26.09
2023-05-10T05:45:01.863Z,26.17
2023-05-10T05:47:16.572Z,26.23
2023-05-10T05:48:16.392Z,26.27
2023-05-10T05:49:16.754Z,26.27
2023-05-10T05:50:16.175Z,26.33
2023-05-10T05:51:15.995Z,26.36
2023-05-10T05:52:15.969Z,26.40
2023-05-10T05:53:15.993Z,26.42
2023-05-10T05:54:15.966Z,26.43
2023-05-10T05:55:16.295Z,26.44
2023-05-10T05:56:17.719Z,26.46
2023-05-10T05:57:16.683Z,26.51
2023-05-10T05:58:15.935Z,26.54
2023-05-10T05:59:16.011Z,26.58
2023-05-10T06:00:15.932Z,26.60
2023-05-10T06:01:16.374Z,26.64
2023-05-10T06:02:15.941Z,26.64
2023-05-10T06:03:15.983Z,26.67
2023-05-10T06:04:15.997Z,26.70
2023-05-10T06:05:15.986Z,26.71
2023-05-10T06:06:16.208Z,26.74
2023-05-10T06:07:15.924Z,26.75
2023-05-10T06:08:15.886Z,26.77
2023-05-10T06:09:15.914Z,26.80
2023-05-10T06:10:15.904Z,26.80
2023-05-10T06:11:15.935Z,26.83
2023-05-10T06:12:15.966Z,26.85
2023-05-10T06:13:16.031Z,26.85
2023-05-10T06:14:15.990Z,26.88
2023-05-10T06:15:16.375Z,26.90
2023-05-10T06:16:16.071Z,26.94
2023-05-10T06:17:16.052Z,26.94
2023-05-10T06:18:16.064Z,26.95
2023-05-10T06:19:16.237Z,26.98
2023-05-10T06:20:16.194Z,26.98
2023-05-10T06:21:16.197Z,26.99
2023-05-10T06:22:16.110Z,27.04
2023-05-10T06:23:16.293Z,27.05
2023-05-10T06:24:16.127Z,27.08
2023-05-10T06:25:16.367Z,27.09
2023-05-10T06:26:16.316Z,27.09
2023-05-10T06:27:16.354Z,27.09
2023-05-10T06:28:17.158Z,27.15
2023-05-10T06:29:16.642Z,27.14
2023-05-10T06:30:16.251Z,27.15
2023-05-10T06:31:17.277Z,27.18
2023-05-10T06:32:16.412Z,27.18
2023-05-10T06:33:16.250Z,27.21
2023-05-10T06:34:16.250Z,27.19
2023-05-10T06:35:18.365Z,27.21
2023-05-10T06:38:54.781Z,27.15
2023-05-10T06:39:54.960Z,27.18
2023-05-10T06:40:54.447Z,27.16
2023-05-10T06:41:55.927Z,27.16
2023-05-10T06:42:54.249Z,27.16
2023-05-10T06:43:54.416Z,27.18
2023-05-10T06:44:55.085Z,27.15
2023-05-10T06:45:54.039Z,27.19
2023-05-10T06:46:53.968Z,27.15
2023-05-10T06:47:54.194Z,27.15
2023-05-10T06:48:54.290Z,27.16
2023-05-10T06:49:54.541Z,27.15
2023-05-10T06:50:54.132Z,27.14
2023-05-10T06:51:55.444Z,27.15
2023-05-10T06:52:54.002Z,27.14
2023-05-10T06:53:54.760Z,27.14
2023-05-10T06:54:53.969Z,27.15
2023-05-10T06:55:54.313Z,27.12
2023-05-10T06:56:53.938Z,27.14
2023-05-10T06:57:54.107Z,27.12
2023-05-10T06:58:53.946Z,27.12
2023-05-10T06:59:53.988Z,27.11
2023-05-10T07:00:54.230Z,27.12
2023-05-10T07:01:53.931Z,27.11
2023-05-10T07:02:53.946Z,27.11
2023-05-10T07:03:54.019Z,27.09
2023-05-10T07:04:54.199Z,27.09
2023-05-10T07:05:53.853Z,27.08
2023-05-10T07:06:53.875Z,27.09
2023-05-10T07:07:53.852Z,27.09
2023-05-10T07:08:53.918Z,27.11
2023-05-10T07:09:54.124Z,27.08
2023-05-10T07:10:53.987Z,27.09
2023-05-10T07:11:53.841Z,27.11
2023-05-10T07:12:53.918Z,27.09
2023-05-10T07:13:53.982Z,27.09
2023-05-10T07:14:53.906Z,27.09
2023-05-10T07:15:54.313Z,27.09
2023-05-10T07:16:53.938Z,27.08
2023-05-10T07:17:54.021Z,27.06
2023-05-10T07:20:20.265Z,27.06
2023-05-10T07:21:20.085Z,27.06
2023-05-10T07:22:20.947Z,27.08
2023-05-10T07:23:20.228Z,27.09
2023-05-10T07:24:19.875Z,27.14
2023-05-10T07:25:19.749Z,27.16
2023-05-10T07:26:20.933Z,27.18
2023-05-10T07:27:20.366Z,27.18
2023-05-10T07:28:19.859Z,27.21
2023-05-10T07:29:20.114Z,27.22
2023-05-10T07:30:19.936Z,27.22
2023-05-10T07:31:19.771Z,27.24
2023-05-10T07:32:20.822Z,27.26
2023-05-10T07:33:20.141Z,27.26
2023-05-10T07:34:20.132Z,27.31
2023-05-10T07:35:19.991Z,27.31
2023-05-10T07:36:19.995Z,27.33
2023-05-10T07:37:20.804Z,27.32
2023-05-10T07:38:20.367Z,27.33
2023-05-10T07:39:26.565Z,27.35
2023-05-10T07:40:22.760Z,27.38
2023-05-10T07:41:20.340Z,27.39
2023-05-10T07:42:20.372Z,27.39
2023-05-10T07:43:20.341Z,27.39
2023-05-10T07:44:21.290Z,27.43
2023-05-10T07:45:23.160Z,27.43
2023-05-10T07:47:40.340Z,27.46
2023-05-10T07:48:53.451Z,27.46
2023-05-10T07:49:39.764Z,27.52
2023-05-10T07:50:39.363Z,27.52
2023-05-10T07:51:39.636Z,27.53
2023-05-10T07:52:40.133Z,27.56
2023-05-10T07:53:39.163Z,27.56
2023-05-10T07:54:39.561Z,27.57
2023-05-10T07:55:39.274Z,27.59
2023-05-10T07:56:39.552Z,27.60
2023-05-10T07:57:39.397Z,27.60
2023-05-10T07:58:40.681Z,27.62
2023-05-10T07:59:39.570Z,27.62
2023-05-10T08:00:39.895Z,27.62
2023-05-10T08:01:39.401Z,27.63
2023-05-10T08:02:39.888Z,27.63
2023-05-10T08:06:12.691Z,27.66
2023-05-10T08:08:25.917Z,27.64
2023-05-10T08:09:23.876Z,27.64
2023-05-10T08:10:25.591Z,27.67
2023-05-10T08:11:24.289Z,27.67
2023-05-10T08:13:59.953Z,27.69
2023-05-10T08:14:58.022Z,27.69
2023-05-10T08:15:57.993Z,27.74
2023-05-10T08:16:57.750Z,27.74
2023-05-10T08:19:16.756Z,27.73
2023-05-10T08:20:16.252Z,27.72
2023-05-10T08:21:16.240Z,27.76
2023-05-10T08:22:19.451Z,27.74
2023-05-10T08:23:15.964Z,27.77
2023-05-10T08:24:17.623Z,27.83
2023-05-10T08:25:16.297Z,27.83
2023-05-10T08:27:41.100Z,27.80
2023-05-10T08:28:47.506Z,27.84
2023-05-10T08:29:49.541Z,27.84
2023-05-10T08:32:02.658Z,27.84
2023-05-10T08:34:19.271Z,27.83
2023-05-10T08:36:39.336Z,27.87
2023-05-10T08:37:38.224Z,27.87
2023-05-10T08:40:07.665Z,27.86
2023-05-10T08:41:02.743Z,27.90
2023-05-10T08:42:02.927Z,27.91
2023-05-10T08:42:59.147Z,27.93
2023-05-10T08:44:00.640Z,27.91
2023-05-10T08:44:56.788Z,27.94
2023-05-10T08:45:56.958Z,27.96
2023-05-10T08:46:57.770Z,27.96
2023-05-10T08:47:56.825Z,27.97
2023-05-10T08:52:35.956Z,27.99
2023-05-10T08:59:29.195Z,28.03
2023-05-10T09:01:45.737Z,27.99
2023-05-10T09:07:48.725Z,28.00
2023-05-10T09:10:07.752Z,27.97
2023-05-10T09:12:53.462Z,27.97
2023-05-10T09:13:51.236Z,27.97
2023-05-10T09:19:37.280Z,28.01
2023-05-10T09:22:18.036Z,27.99
2023-05-10T09:26:58.215Z,28.00
2023-05-10T09:29:17.509Z,28.01
2023-05-10T09:31:34.549Z,27.99
2023-05-10T09:32:35.243Z,28.00
2023-05-10T09:33:34.223Z,28.01
2023-05-10T09:34:33.931Z,28.03
2023-05-10T09:35:34.673Z,28.04
2023-05-10T09:36:34.188Z,28.04
2023-05-10T09:37:35.023Z,28.05
2023-05-10T09:38:33.932Z,28.08
2023-05-10T09:39:34.087Z,28.07
2023-05-10T09:40:34.191Z,28.07
2023-05-10T09:41:33.921Z,28.07
2023-05-10T09:42:33.897Z,28.10
2023-05-10T09:43:34.546Z,28.10
2023-05-10T09:44:33.922Z,28.08
2023-05-10T09:45:36.215Z,28.08
2023-05-10T09:46:33.838Z,28.08
2023-05-10T09:47:33.868Z,28.10
2023-05-10T09:48:33.837Z,28.10
2023-05-10T09:49:33.839Z,28.10
2023-05-10T09:50:34.300Z,28.08
2023-05-10T09:51:36.163Z,28.10
2023-05-10T09:52:34.053Z,28.10
2023-05-10T09:53:34.352Z,28.11
2023-05-10T09:54:33.800Z,28.07
2023-05-10T09:55:33.819Z,28.08
2023-05-10T09:56:33.794Z,28.08
2023-05-10T09:57:35.158Z,28.07
2023-05-10T09:58:33.786Z,28.08
2023-05-10T09:59:33.810Z,28.07
2023-05-10T10:00:33.758Z,28.08
2023-05-10T10:01:33.934Z,28.08
2023-05-10T10:02:33.696Z,28.05
2023-05-10T10:03:33.896Z,28.05
2023-05-10T10:04:33.856Z,28.07
2023-05-10T10:05:33.681Z,28.07
2023-05-10T10:06:33.691Z,28.08
2023-05-10T10:07:33.641Z,28.04
2023-05-10T10:08:33.668Z,28.04
2023-05-10T10:09:34.661Z,28.05
2023-05-10T10:10:33.741Z,28.03
2023-05-10T10:11:33.709Z,28.04
2023-05-10T10:12:33.630Z,28.04
2023-05-10T10:13:33.772Z,28.01
2023-05-10T10:14:33.637Z,28.03
2023-05-10T10:17:05.658Z,27.99
2023-05-10T10:19:12.785Z,27.94
2023-05-10T10:20:13.431Z,27.97
2023-05-10T10:21:12.462Z,27.96
2023-05-10T10:22:12.335Z,27.97
2023-05-10T10:23:11.640Z,27.97
2023-05-10T10:24:12.197Z,27.97
2023-05-10T10:25:11.833Z,27.96
2023-05-10T10:26:18.818Z,27.96
2023-05-10T10:27:11.793Z,27.93
2023-05-10T10:28:11.846Z,27.96
2023-05-10T10:29:11.799Z,27.94
2023-05-10T10:30:11.806Z,27.93
2023-05-10T10:31:11.674Z,27.91
2023-05-10T10:32:11.939Z,27.93
2023-05-10T10:33:24.340Z,27.91
2023-05-10T10:34:12.782Z,27.91
2023-05-10T10:35:11.640Z,27.91
2023-05-10T10:36:11.923Z,27.93
2023-05-10T10:37:11.657Z,27.90
2023-05-10T10:38:12.490Z,27.91
2023-05-10T10:39:11.739Z,27.90
2023-05-10T10:40:11.854Z,27.91
2023-05-10T10:41:11.813Z,27.90
2023-05-10T10:42:12.484Z,27.90
2023-05-10T10:43:11.474Z,27.89
2023-05-10T10:44:12.475Z,27.90
2023-05-10T10:45:11.459Z,27.89
2023-05-10T10:46:11.579Z,27.89
2023-05-10T10:47:11.482Z,27.89
2023-05-10T10:48:11.490Z,27.87
2023-05-10T10:49:11.564Z,27.86
2023-05-10T10:50:11.447Z,27.89
2023-05-10T10:51:12.746Z,27.87
2023-05-10T10:52:11.421Z,27.87
2023-05-10T10:53:11.407Z,27.87
2023-05-10T10:54:11.442Z,27.86
2023-05-10T10:55:11.415Z,27.84
2023-05-10T10:56:12.454Z,27.84
2023-05-10T10:57:11.651Z,27.82
2023-05-10T10:58:11.744Z,27.83
2023-05-10T10:59:11.884Z,27.82
2023-05-10T11:00:11.552Z,27.84
2023-05-10T11:01:12.900Z,27.82
2023-05-10T11:02:11.722Z,27.84
2023-05-10T11:03:11.777Z,27.82
2023-05-10T11:04:11.785Z,27.83
2023-05-10T11:05:11.814Z,27.79
2023-05-10T11:06:11.842Z,27.82
2023-05-10T11:07:11.911Z,27.80
2023-05-10T11:08:11.976Z,27.82
2023-05-10T11:09:11.975Z,27.82
2023-05-10T11:10:12.090Z,27.80
2023-05-10T11:11:12.081Z,27.80
2023-05-10T11:12:12.173Z,27.80
2023-05-10T11:13:12.263Z,27.79
2023-05-10T11:14:12.565Z,27.80
2023-05-10T11:15:12.922Z,27.77
2023-05-10T11:16:12.999Z,27.77
2023-05-10T11:17:12.442Z,27.77
2023-05-10T11:18:12.554Z,27.77
2023-05-10T11:19:12.534Z,27.77
2023-05-10T11:20:12.563Z,27.77
2023-05-10T11:21:12.663Z,27.76
2023-05-10T11:22:12.699Z,27.74
2023-05-10T11:23:12.771Z,27.76
2023-05-10T11:24:12.754Z,27.74
2023-05-10T11:25:12.859Z,27.76
2023-05-10T11:26:13.034Z,27.74
2023-05-10T11:27:12.923Z,27.73
2023-05-10T11:28:12.972Z,27.73
2023-05-10T11:29:13.045Z,27.76
2023-05-10T11:30:13.132Z,27.73
2023-05-10T11:31:13.271Z,27.74
2023-05-10T11:32:13.166Z,27.72
2023-05-10T11:33:13.376Z,27.73
2023-05-10T11:34:13.315Z,27.70
2023-05-10T11:35:13.365Z,27.73
2023-05-10T11:36:13.424Z,27.70
2023-05-10T11:37:13.414Z,27.72
2023-05-10T11:38:13.472Z,27.72
2023-05-10T11:39:18.370Z,27.69
2023-05-10T11:40:13.553Z,27.72
2023-05-10T11:41:13.536Z,27.73
2023-05-10T11:42:13.562Z,27.72
2023-05-10T11:43:13.513Z,27.72
2023-05-10T11:44:13.489Z,27.72
2023-05-10T11:45:13.488Z,27.70
2023-05-10T11:46:13.527Z,27.67
2023-05-10T11:47:13.555Z,27.70
2023-05-10T11:48:13.558Z,27.72
2023-05-10T11:49:13.496Z,27.70
2023-05-10T11:50:13.582Z,27.69
2023-05-10T11:51:13.569Z,27.72
2023-05-10T11:52:13.642Z,27.67
2023-05-10T11:53:13.705Z,27.69
2023-05-10T11:54:13.712Z,27.67
2023-05-10T11:55:13.836Z,27.67
2023-05-10T11:56:13.857Z,27.67
2023-05-10T11:57:13.887Z,27.69
2023-05-10T11:58:14.018Z,27.67
2023-05-10T11:59:14.016Z,27.67
2023-05-10T12:00:14.109Z,27.69
2023-05-10T12:01:14.149Z,27.66
2023-05-10T12:02:14.165Z,27.66
2023-05-10T12:03:14.346Z,27.69
2023-05-10T12:04:14.483Z,27.66
2023-05-10T12:05:14.392Z,27.67
2023-05-10T12:06:14.916Z,27.66
2023-05-10T12:07:14.556Z,27.67
2023-05-10T12:08:15.444Z,27.67
2023-05-10T12:09:14.597Z,27.64
2023-05-10T12:10:14.751Z,27.67
2023-05-10T12:11:15.027Z,27.66
2023-05-10T12:12:15.742Z,27.64
2023-05-10T12:13:14.913Z,27.66
2023-05-10T12:14:14.870Z,27.66
2023-05-10T12:15:14.937Z,27.64
2023-05-10T12:16:15.176Z,27.64
2023-05-10T12:17:15.123Z,27.66
2023-05-10T12:18:15.225Z,27.63
2023-05-10T12:19:15.434Z,27.63
2023-05-10T12:20:15.609Z,27.64
2023-05-10T12:21:15.298Z,27.63
2023-05-10T12:22:15.394Z,27.63
2023-05-10T12:23:15.488Z,27.63
2023-05-10T12:24:15.419Z,27.64
2023-05-10T12:25:15.486Z,27.63
2023-05-10T12:26:15.664Z,27.62
2023-05-10T12:27:17.168Z,27.62
2023-05-10T12:28:15.683Z,27.64
2023-05-10T12:29:15.707Z,27.60
2023-05-10T12:30:16.255Z,27.60
2023-05-10T12:31:15.828Z,27.60
2023-05-10T12:32:16.120Z,27.60
2023-05-10T12:33:16.304Z,27.59
2023-05-10T12:34:16.053Z,27.60
2023-05-10T12:35:16.057Z,27.60
2023-05-10T12:36:16.118Z,27.59
2023-05-10T12:37:16.194Z,27.59
2023-05-10T12:38:16.294Z,27.59
2023-05-10T12:39:16.311Z,27.60
2023-05-10T12:40:17.545Z,27.62
2023-05-10T12:41:16.546Z,27.62
2023-05-10T12:42:16.511Z,27.62
2023-05-10T12:43:16.542Z,27.60
2023-05-10T12:44:16.567Z,27.62
2023-05-10T12:45:16.682Z,27.62
2023-05-10T12:46:16.768Z,27.60
2023-05-10T12:47:16.765Z,27.62
2023-05-10T12:48:16.795Z,27.60
2023-05-10T12:49:16.886Z,27.63
2023-05-10T12:50:17.159Z,27.63
2023-05-10T12:51:17.032Z,27.60
2023-05-10T12:52:18.058Z,27.63
2023-05-10T12:53:17.177Z,27.63
2023-05-10T12:54:17.180Z,27.62
2023-05-10T12:55:17.221Z,27.63
2023-05-10T12:56:17.432Z,27.63
2023-05-10T12:57:17.340Z,27.62
2023-05-10T12:58:27.829Z,27.62
2023-05-10T12:59:17.463Z,27.60
2023-05-10T13:00:18.654Z,27.62
2023-05-10T13:01:17.393Z,27.62
2023-05-10T13:02:17.462Z,27.62
2023-05-10T13:03:18.454Z,27.62
2023-05-10T13:04:17.413Z,27.63
2023-05-10T13:05:17.405Z,27.60
2023-05-10T13:06:17.448Z,27.60
2023-05-10T13:07:17.326Z,27.60
2023-05-10T13:08:17.606Z,27.60
2023-05-10T13:09:17.433Z,27.60
2023-05-10T13:10:17.807Z,27.59
2023-05-10T13:11:17.568Z,27.60
2023-05-10T13:12:17.603Z,27.59
2023-05-10T13:13:18.037Z,27.59
2023-05-10T13:14:17.709Z,27.59
2023-05-10T13:15:17.737Z,27.57
2023-05-10T13:16:17.967Z,27.56
2023-05-10T13:17:18.116Z,27.57
2023-05-10T13:18:17.924Z,27.57
2023-05-10T13:19:17.975Z,27.57
2023-05-10T13:20:18.152Z,27.53
2023-05-10T13:21:18.020Z,27.54
2023-05-10T13:22:25.669Z,27.54
2023-05-10T13:23:18.973Z,27.53
2023-05-10T13:24:18.048Z,27.53
2023-05-10T13:25:18.068Z,27.54
2023-05-10T13:26:17.992Z,27.54
2023-05-10T13:27:18.081Z,27.53
2023-05-10T13:28:18.060Z,27.56
2023-05-10T13:29:18.042Z,27.54
2023-05-10T13:30:18.281Z,27.53
2023-05-10T13:31:18.194Z,27.52
2023-05-10T13:32:18.074Z,27.50
2023-05-10T13:33:18.173Z,27.52
2023-05-10T13:34:18.167Z,27.53
2023-05-10T13:35:18.247Z,27.50
2023-05-10T13:36:18.369Z,27.50
2023-05-10T13:37:18.436Z,27.50
2023-05-10T13:38:19.962Z,27.54
2023-05-10T13:39:18.419Z,27.48
2023-05-10T13:40:19.042Z,27.50
2023-05-10T13:42:39.030Z,27.43
2023-05-10T13:44:58.300Z,27.45
2023-05-10T13:46:09.125Z,27.45
2023-05-10T13:47:00.025Z,27.48
2023-05-10T13:49:16.771Z,27.42
2023-05-10T13:50:16.717Z,27.43
2023-05-10T13:51:17.056Z,27.42
2023-05-10T13:53:35.571Z,27.43
2023-05-10T13:55:56.482Z,27.36
2023-05-10T13:56:55.516Z,27.39
2023-05-10T13:57:55.910Z,27.41
2023-05-10T14:00:16.393Z,27.33
2023-05-10T14:01:15.012Z,27.38
2023-05-10T14:02:13.837Z,27.36
2023-05-10T14:04:34.419Z,27.36
2023-05-10T14:05:33.457Z,27.35
2023-05-10T14:06:33.704Z,27.33
2023-05-10T14:08:53.396Z,27.31
2023-05-10T14:09:51.564Z,27.35
2023-05-10T14:10:51.193Z,27.38
2023-05-10T14:11:53.376Z,27.36
2023-05-10T14:14:16.794Z,27.32
2023-05-10T14:15:12.754Z,27.36
2023-05-10T14:17:30.397Z,27.33
2023-05-10T14:18:32.163Z,27.32
2023-05-10T14:19:31.154Z,27.35
2023-05-10T14:21:50.154Z,27.35
2023-05-10T14:22:50.625Z,27.35
2023-05-10T14:23:49.732Z,27.33
2023-05-10T14:24:49.289Z,27.36
2023-05-10T14:25:50.142Z,27.35
2023-05-10T14:26:50.304Z,27.33
2023-05-10T14:27:49.516Z,27.33
2023-05-10T14:30:39.735Z,27.32
2023-05-10T14:31:39.875Z,27.32
2023-05-10T14:32:39.760Z,27.31
2023-05-10T14:34:59.277Z,27.29
2023-05-10T14:37:17.329Z,27.28
2023-05-10T14:39:37.126Z,27.25
2023-05-10T14:41:57.151Z,27.25
2023-05-10T14:45:23.748Z,27.26
2023-05-10T14:50:01.028Z,27.22
2023-05-10T14:51:02.000Z,27.25
2023-05-10T14:53:21.518Z,27.21
2023-05-10T14:56:57.501Z,27.19
2023-05-10T14:57:59.087Z,27.21
2023-05-10T14:58:56.881Z,27.22
2023-05-10T14:59:56.018Z,27.19
2023-05-10T15:00:56.900Z,27.24
2023-05-10T15:01:58.075Z,27.18
2023-05-10T15:05:39.299Z,27.16
2023-05-10T15:07:57.001Z,27.18
2023-05-10T15:08:59.560Z,27.18
2023-05-10T15:09:55.694Z,27.21
2023-05-10T15:12:18.550Z,27.19
2023-05-10T15:13:15.206Z,27.18
2023-05-10T15:15:35.206Z,27.15
2023-05-10T15:21:10.823Z,27.15
2023-05-10T15:22:07.646Z,27.15
2023-05-10T15:24:35.085Z,27.14
2023-05-10T15:25:27.045Z,27.15
2023-05-10T15:26:26.847Z,27.16
2023-05-10T15:27:31.110Z,27.18
2023-05-10T15:28:28.553Z,27.16
2023-05-10T15:29:27.645Z,27.21
2023-05-10T15:30:29.009Z,27.19
2023-05-10T15:31:27.708Z,27.16
2023-05-10T15:32:34.435Z,27.16
2023-05-10T15:35:12.667Z,27.16
2023-05-10T15:36:11.689Z,27.16
2023-05-10T15:39:20.492Z,27.15
2023-05-10T15:43:46.058Z,27.15
2023-05-10T15:44:37.584Z,27.14
2023-05-10T15:45:40.220Z,27.15
2023-05-10T15:48:27.395Z,27.15
2023-05-10T15:49:26.688Z,27.15
2023-05-10T15:50:25.705Z,27.16
2023-05-10T15:51:29.238Z,27.14
2023-05-10T15:52:27.253Z,27.15
2023-05-10T15:53:24.623Z,27.15
2023-05-10T15:54:25.718Z,27.15
2023-05-10T15:55:24.968Z,27.14
2023-05-10T15:56:28.670Z,27.12
2023-05-10T15:57:27.974Z,27.16
2023-05-10T15:58:27.829Z,27.14
2023-05-10T15:59:26.706Z,27.16
2023-05-10T16:00:24.561Z,27.15
2023-05-10T16:01:27.221Z,27.16
2023-05-10T16:02:27.231Z,27.16
2023-05-10T16:03:25.026Z,27.15
2023-05-10T16:04:25.764Z,27.14
2023-05-10T16:05:26.114Z,27.15
2023-05-10T16:06:27.169Z,27.16
2023-05-10T16:08:45.792Z,27.14
2023-05-10T16:09:46.358Z,27.12
2023-05-10T16:10:44.554Z,27.12
2023-05-10T16:11:46.912Z,27.12
2023-05-10T16:12:46.582Z,27.14
2023-05-10T16:13:45.484Z,27.14
2023-05-10T16:14:45.237Z,27.12
2023-05-10T16:15:45.516Z,27.15
2023-05-10T16:16:43.989Z,27.15
2023-05-10T16:17:47.457Z,27.16
2023-05-10T16:18:46.272Z,27.15
2023-05-10T16:19:44.059Z,27.14
2023-05-10T16:22:09.646Z,27.12
2023-05-10T16:23:08.555Z,27.12
2023-05-10T16:24:08.965Z,27.14
2023-05-10T16:25:08.536Z,27.14
2023-05-10T16:28:02.348Z,27.11
2023-05-10T16:29:04.310Z,27.11
2023-05-10T16:30:03.310Z,27.11
2023-05-10T16:31:02.921Z,27.09
2023-05-10T16:32:02.276Z,27.12
2023-05-10T16:33:01.402Z,27.09
2023-05-10T16:34:00.716Z,27.11
2023-05-10T16:35:01.474Z,27.11
2023-05-10T16:36:00.935Z,27.12
2023-05-10T16:37:02.329Z,27.11
2023-05-10T16:42:47.312Z,27.12
2023-05-10T16:45:58.496Z,27.06
2023-05-10T16:46:55.788Z,27.05
2023-05-10T16:51:32.145Z,27.04
2023-05-10T16:52:26.674Z,27.02
2023-05-10T16:54:46.994Z,26.99
2023-05-10T16:55:47.238Z,27.01
2023-05-10T16:58:08.588Z,26.99
2023-05-10T16:59:03.720Z,26.99
2023-05-10T17:00:03.630Z,27.01
2023-05-10T17:01:03.106Z,27.02
2023-05-10T17:02:03.711Z,27.02
2023-05-10T17:03:06.674Z,27.01
2023-05-10T17:04:02.844Z,27.04
2023-05-10T17:06:23.041Z,26.99
2023-05-10T17:07:25.415Z,27.02
2023-05-10T17:10:48.198Z,26.99
2023-05-10T17:11:46.405Z,27.04
2023-05-10T17:12:46.205Z,27.02
2023-05-10T17:13:48.448Z,27.04
2023-05-10T17:14:47.187Z,27.01
2023-05-10T17:15:46.381Z,27.02
2023-05-10T17:16:44.151Z,27.02
2023-05-10T17:17:47.258Z,27.02
2023-05-10T17:21:39.163Z,26.97
2023-05-10T17:25:26.230Z,26.94
2023-05-10T17:29:26.562Z,26.93
2023-05-10T17:32:32.173Z,26.95
2023-05-10T17:34:52.868Z,26.91
2023-05-10T17:35:51.179Z,26.93
2023-05-10T17:36:50.472Z,26.94
2023-05-10T17:42:25.819Z,26.90
2023-05-10T17:45:03.263Z,26.88
2023-05-10T17:46:00.674Z,26.91
2023-05-10T17:46:58.522Z,26.93
2023-05-10T17:49:41.370Z,26.91
2023-05-10T17:50:41.088Z,26.91
2023-05-10T17:52:58.668Z,26.88
2023-05-10T17:54:00.679Z,26.87
2023-05-10T17:54:58.470Z,26.85
2023-05-10T17:55:57.388Z,26.91
2023-05-10T17:56:56.926Z,26.91
2023-05-10T17:57:58.803Z,26.91
2023-05-10T17:59:00.171Z,26.91
2023-05-10T18:04:13.738Z,26.90
2023-05-10T18:05:13.912Z,26.91
2023-05-10T18:12:23.547Z,26.88
2023-05-10T18:18:56.248Z,26.87
2023-05-10T18:19:55.870Z,26.88